Time;durP1;ratioP1;P1;durP2;ratioP2;P2;SDS_P1;SDS_P2;PMS_P1;PMS_P2;Temp;Humidity;BMP_temperature;BMP_pressure;BME280_temperature;BME280_humidity;BME280_pressure;Samples;Min_cycle;Max_cycle;Signal;HPM_P1;HPM_P2
2023/10/03 00:00:34;;;;;;;57.92;35.10;;;17.50;99.90;;;;;;6157283;23;20013;-82
2023/10/03 00:03:01;;;;;;;52.08;31.20;;;17.40;99.90;;;;;;6133230;23;20032;-83
2023/10/03 00:05:28;;;;;;;59.58;37.50;;;17.40;99.90;;;;;;6133337;23;20008;-83
2023/10/03 00:08:00;;;;;;;54.10;32.40;;;17.40;99.90;;;;;;6133533;23;20017;-82
2023/10/03 00:10:28;;;;;;;53.10;31.75;;;17.40;99.90;;;;;;6132648;23;20024;-82
2023/10/03 00:12:54;;;;;;;55.97;31.58;;;17.40;99.90;;;;;;6133491;23;20036;-83
2023/10/03 00:15:24;;;;;;;59.65;32.53;;;17.40;99.90;;;;;;6132354;23;20044;-83
2023/10/03 00:17:50;;;;;;;76.53;33.95;;;17.50;99.90;;;;;;6133154;23;20032;-83
2023/10/03 00:20:17;;;;;;;59.38;33.58;;;17.30;99.90;;;;;;6132388;23;20013;-83
2023/10/03 00:22:44;;;;;;;56.55;35.65;;;17.20;99.90;;;;;;6132802;23;20048;-83
2023/10/03 00:25:17;;;;;;;57.85;35.70;;;17.20;99.90;;;;;;6133550;23;20456;-83
2023/10/03 00:27:49;;;;;;;53.35;32.28;;;17.20;99.90;;;;;;6132489;23;20021;-83
2023/10/03 00:30:16;;;;;;;59.25;31.63;;;17.20;99.90;;;;;;6132548;23;20024;-83
2023/10/03 00:32:42;;;;;;;55.30;35.45;;;17.20;99.90;;;;;;6132141;23;20017;-82
2023/10/03 00:35:08;;;;;;;58.45;35.08;;;17.20;99.90;;;;;;6130603;23;20313;-83
2023/10/03 00:37:39;;;;;;;47.40;30.02;;;17.20;99.90;;;;;;6130300;23;20793;-82
2023/10/03 00:40:27;;;;;;;46.22;29.30;;;17.00;99.90;;;;;;6129907;23;20009;-83
2023/10/03 00:42:59;;;;;;;55.60;33.67;;;17.20;99.90;;;;;;6154693;23;20079;-83
2023/10/03 00:45:32;;;;;;;54.90;31.13;;;17.10;99.90;;;;;;6154907;23;20133;-82
2023/10/03 00:48:06;;;;;;;55.92;33.85;;;17.20;99.90;;;;;;6130318;23;20021;-83
2023/10/03 00:50:34;;;;;;;55.50;31.85;;;17.10;99.90;;;;;;6156073;23;20067;-82
2023/10/03 00:53:04;;;;;;;56.85;38.92;;;17.10;99.90;;;;;;6129825;23;20017;-82
2023/10/03 00:55:33;;;;;;;53.10;29.90;;;17.10;99.90;;;;;;6130034;23;20021;-83
2023/10/03 00:58:07;;;;;;;55.40;32.38;;;17.10;99.90;;;;;;6128804;23;20035;-83
2023/10/03 01:00:43;;;;;;;52.58;31.00;;;17.10;99.90;;;;;;6129571;23;20044;-82
2023/10/03 01:03:29;;;;;;;64.90;40.17;;;17.00;99.90;;;;;;6131262;23;20047;-83
2023/10/03 01:05:59;;;;;;;58.17;36.53;;;17.00;99.90;;;;;;6130713;23;20045;-82
2023/10/03 01:08:25;;;;;;;50.70;30.50;;;17.00;99.90;;;;;;6131335;23;20017;-82
2023/10/03 01:10:51;;;;;;;50.58;30.98;;;17.00;99.90;;;;;;6130414;23;20017;-82
2023/10/03 01:13:19;;;;;;;59.58;29.52;;;17.00;99.90;;;;;;6130031;23;20036;-83
2023/10/03 01:15:52;;;;;;;53.10;28.05;;;17.00;99.90;;;;;;6130931;23;20013;-82
2023/10/03 01:18:22;;;;;;;48.97;28.52;;;17.00;99.90;;;;;;6131074;23;20083;-83
2023/10/03 01:20:52;;;;;;;53.42;38.05;;;17.00;99.90;;;;;;6155273;23;20344;-82
2023/10/03 01:23:19;;;;;;;51.05;32.83;;;16.90;99.90;;;;;;6129541;23;20020;-82
2023/10/03 01:25:45;;;;;;;50.58;34.03;;;17.00;99.90;;;;;;6130308;23;20009;-82
2023/10/03 01:28:13;;;;;;;49.40;28.80;;;17.00;99.90;;;;;;6130835;23;20017;-83
2023/10/03 01:30:43;;;;;;;52.60;30.75;;;17.00;99.90;;;;;;6130858;23;20017;-82
2023/10/03 01:33:10;;;;;;;57.17;35.08;;;16.90;99.90;;;;;;6130860;23;20040;-82
2023/10/03 01:35:35;;;;;;;49.97;30.63;;;17.00;99.90;;;;;;6130837;23;20013;-82
2023/10/03 01:38:01;;;;;;;52.30;27.90;;;17.00;99.90;;;;;;6155419;23;20075;-83
2023/10/03 01:40:27;;;;;;;50.45;27.38;;;16.90;99.90;;;;;;6153707;23;20009;-82
2023/10/03 01:42:53;;;;;;;44.58;28.67;;;16.80;99.90;;;;;;6130858;23;20017;-82
2023/10/03 01:45:24;;;;;;;45.35;27.77;;;16.90;99.90;;;;;;6130466;23;20063;-83
2023/10/03 01:47:51;;;;;;;49.22;36.70;;;16.90;99.90;;;;;;6130535;23;20021;-83
2023/10/03 01:50:21;;;;;;;47.65;30.33;;;16.90;99.90;;;;;;6155365;23;20013;-83
2023/10/03 01:52:49;;;;;;;46.67;31.15;;;16.90;99.90;;;;;;6131017;23;20441;-83
2023/10/03 01:55:17;;;;;;;43.63;27.85;;;16.90;99.90;;;;;;6130227;23;20009;-83
2023/10/03 01:57:44;;;;;;;54.42;39.33;;;16.90;99.90;;;;;;6130757;23;20017;-82
2023/10/03 02:00:24;;;;;;;50.88;27.98;;;17.00;99.90;;;;;;6154924;23;20013;-83
2023/10/03 02:02:56;;;;;;;44.60;26.90;;;17.00;99.90;;;;;;6130512;23;20459;-83
2023/10/03 02:05:24;;;;;;;44.08;25.88;;;17.00;99.90;;;;;;6131295;23;20021;-83
2023/10/03 02:07:52;;;;;;;45.28;25.80;;;17.00;99.90;;;;;;6155347;23;20113;-83
2023/10/03 02:10:18;;;;;;;50.28;27.48;;;17.00;99.90;;;;;;6129497;23;20017;-83
2023/10/03 02:12:51;;;;;;;38.60;24.33;;;16.90;99.90;;;;;;6130161;23;20095;-83
2023/10/03 02:15:23;;;;;;;47.30;27.15;;;17.00;99.90;;;;;;6154969;23;20016;-83
2023/10/03 02:17:53;;;;;;;43.97;25.88;;;16.90;99.90;;;;;;6130632;23;20024;-82
2023/10/03 02:20:24;;;;;;;51.08;26.48;;;17.00;99.90;;;;;;6130370;23;20009;-82
2023/10/03 02:22:54;;;;;;;44.53;26.75;;;17.10;99.90;;;;;;6130779;23;20013;-83
2023/10/03 02:25:30;;;;;;;42.53;26.88;;;17.00;99.90;;;;;;6130130;23;20056;-82
2023/10/03 02:27:56;;;;;;;43.72;30.75;;;17.20;99.90;;;;;;6130938;23;20044;-82
2023/10/03 02:30:25;;;;;;;47.80;27.13;;;17.10;99.90;;;;;;6130476;23;20013;-82
2023/10/03 02:32:58;;;;;;;56.33;32.40;;;17.00;99.90;;;;;;6130558;23;20017;-82
2023/10/03 02:35:25;;;;;;;45.75;25.63;;;17.10;99.90;;;;;;6155259;23;20013;-82
2023/10/03 02:37:56;;;;;;;54.08;33.30;;;17.10;99.90;;;;;;6130238;23;20100;-82
2023/10/03 02:40:26;;;;;;;48.28;28.08;;;17.10;99.90;;;;;;6155115;23;20440;-82
2023/10/03 02:42:53;;;;;;;42.30;26.45;;;17.10;99.90;;;;;;6154915;23;20009;-82
2023/10/03 02:45:23;;;;;;;43.63;27.40;;;17.10;99.90;;;;;;6149788;23;20140;-84
2023/10/03 02:47:55;;;;;;;42.53;25.92;;;17.10;99.90;;;;;;6150022;23;20013;-83
2023/10/03 02:50:23;;;;;;;47.05;30.42;;;17.10;99.90;;;;;;6126187;23;20017;-83
2023/10/03 02:52:51;;;;;;;45.50;26.42;;;17.00;99.90;;;;;;6151118;23;20010;-82
2023/10/03 02:55:17;;;;;;;45.90;28.23;;;17.10;99.90;;;;;;6151977;23;20387;-82
2023/10/03 02:57:44;;;;;;;46.70;30.60;;;17.10;99.90;;;;;;6126736;23;20020;-82
2023/10/03 03:00:15;;;;;;;49.80;31.90;;;17.20;99.90;;;;;;6151962;23;20479;-82
2023/10/03 03:02:47;;;;;;;47.42;28.40;;;17.10;99.90;;;;;;6151668;23;20013;-82
2023/10/03 03:05:17;;;;;;;47.63;29.30;;;17.20;99.90;;;;;;6127188;23;20015;-82
2023/10/03 03:07:48;;;;;;;43.65;26.70;;;17.10;99.90;;;;;;6126959;23;20015;-82
2023/10/03 03:10:17;;;;;;;46.45;24.33;;;17.10;99.90;;;;;;6151570;23;20019;-82
2023/10/03 03:12:47;;;;;;;51.00;30.05;;;17.10;99.90;;;;;;6127292;23;20102;-83
2023/10/03 03:15:22;;;;;;;45.47;28.85;;;17.10;99.90;;;;;;6126875;23;20006;-82
2023/10/03 03:17:48;;;;;;;51.10;25.88;;;17.10;99.90;;;;;;6127266;23;20479;-82
2023/10/03 03:20:25;;;;;;;44.63;25.73;;;17.10;99.90;;;;;;6150876;23;20010;-82
2023/10/03 03:22:51;;;;;;;47.58;27.40;;;17.10;99.90;;;;;;6126920;23;20066;-83
2023/10/03 03:25:36;;;;;;;41.58;25.25;;;17.10;99.90;;;;;;6127225;23;20010;-82
2023/10/03 03:28:13;;;;;;;43.15;25.48;;;17.10;99.90;;;;;;6126854;23;20024;-82
2023/10/03 03:30:45;;;;;;;47.22;27.27;;;17.10;99.90;;;;;;6151559;23;20024;-82
2023/10/03 03:33:14;;;;;;;46.25;27.35;;;17.10;99.90;;;;;;6151735;23;20014;-83
2023/10/03 03:35:40;;;;;;;42.83;26.98;;;17.10;99.90;;;;;;6126854;23;20072;-82
2023/10/03 03:38:08;;;;;;;42.60;29.15;;;17.20;99.90;;;;;;6150803;23;20017;-81
2023/10/03 03:40:36;;;;;;;39.47;25.67;;;17.20;99.90;;;;;;6151847;23;20079;-82
2023/10/03 03:43:03;;;;;;;43.60;25.33;;;17.20;99.90;;;;;;6126393;23;20024;-82
2023/10/03 03:45:30;;;;;;;47.40;28.17;;;17.20;99.90;;;;;;6126521;23;20014;-82
2023/10/03 03:47:56;;;;;;;47.90;25.55;;;17.20;99.90;;;;;;6126624;23;20020;-82
2023/10/03 03:50:22;;;;;;;45.58;29.27;;;17.20;99.90;;;;;;6126480;23;20096;-82
2023/10/03 03:52:52;;;;;;;41.65;26.50;;;17.20;99.90;;;;;;6150707;23;20014;-83
2023/10/03 03:55:17;;;;;;;45.72;24.80;;;17.20;99.90;;;;;;6126942;23;20052;-82
2023/10/03 03:57:46;;;;;;;46.67;25.90;;;17.30;99.90;;;;;;6128579;23;20009;-82
2023/10/03 04:00:22;;;;;;;40.80;26.08;;;17.30;99.90;;;;;;6154515;23;20053;-82
2023/10/03 04:02:48;;;;;;;44.67;24.50;;;17.30;99.90;;;;;;6151180;23;20017;-82
2023/10/03 04:05:20;;;;;;;44.47;24.70;;;17.40;99.90;;;;;;6128453;23;20052;-82
2023/10/03 04:07:46;;;;;;;38.88;24.23;;;17.40;99.90;;;;;;6151634;23;20049;-83
2023/10/03 04:10:13;;;;;;;42.60;25.85;;;17.40;99.90;;;;;;6126011;23;20014;-82
2023/10/03 04:12:42;;;;;;;40.47;26.95;;;17.40;99.90;;;;;;6150780;23;20040;-83
2023/10/03 04:15:16;;;;;;;45.28;26.05;;;17.30;99.90;;;;;;6151176;23;20024;-83
2023/10/03 04:17:42;;;;;;;42.05;24.65;;;17.30;99.90;;;;;;6127845;23;20017;-83
2023/10/03 04:20:30;;;;;;;44.92;26.88;;;17.30;99.90;;;;;;6126596;23;20085;-83
2023/10/03 04:22:58;;;;;;;38.08;23.90;;;17.30;99.90;;;;;;6127383;23;20018;-81
2023/10/03 04:25:24;;;;;;;40.50;24.75;;;17.40;99.90;;;;;;6127245;23;20009;-83
2023/10/03 04:27:52;;;;;;;41.85;25.17;;;17.40;99.90;;;;;;6151982;23;20022;-82
2023/10/03 04:30:20;;;;;;;42.33;23.40;;;17.40;99.90;;;;;;6126832;23;20072;-83
2023/10/03 04:32:49;;;;;;;38.00;23.60;;;17.50;99.90;;;;;;6126866;23;20024;-83
2023/10/03 04:35:18;;;;;;;42.13;27.17;;;17.60;99.90;;;;;;6126662;23;20021;-83
2023/10/03 04:37:44;;;;;;;43.50;25.27;;;17.60;99.90;;;;;;6126513;23;20348;-83
2023/10/03 04:40:13;;;;;;;42.17;25.20;;;17.60;99.90;;;;;;6127587;23;20104;-83
2023/10/03 04:42:40;;;;;;;41.75;24.17;;;17.60;99.90;;;;;;6126910;23;20049;-83
2023/10/03 04:45:10;;;;;;;36.78;21.63;;;17.70;99.90;;;;;;6151197;23;20056;-83
2023/10/03 04:47:41;;;;;;;42.15;25.92;;;17.60;99.90;;;;;;6150897;23;20025;-83
2023/10/03 04:50:08;;;;;;;40.60;25.00;;;17.70;99.90;;;;;;6126276;23;20380;-83
2023/10/03 04:52:33;;;;;;;44.67;22.33;;;17.70;99.90;;;;;;6126096;23;20048;-82
2023/10/03 04:54:59;;;;;;;36.47;22.08;;;17.80;99.90;;;;;;6126526;23;20010;-81
2023/10/03 04:57:27;;;;;;;40.97;23.73;;;17.80;99.90;;;;;;6127402;23;20014;-83
2023/10/03 04:59:56;;;;;;;37.58;23.77;;;17.90;99.90;;;;;;6151669;23;20325;-83
2023/10/03 05:02:22;;;;;;;37.40;22.13;;;17.90;99.90;;;;;;6152845;23;20013;-83
2023/10/03 05:04:48;;;;;;;37.28;21.75;;;18.00;99.90;;;;;;6127385;23;20045;-83
2023/10/03 05:07:15;;;;;;;36.15;22.80;;;18.00;99.90;;;;;;6128049;23;20032;-83
2023/10/03 05:09:41;;;;;;;36.00;22.25;;;18.00;99.90;;;;;;6127675;23;20022;-84
2023/10/03 05:12:06;;;;;;;42.72;22.70;;;18.00;99.90;;;;;;6127674;23;20347;-84
2023/10/03 05:14:34;;;;;;;42.53;22.75;;;18.10;99.90;;;;;;6127595;23;20013;-84
2023/10/03 05:17:01;;;;;;;36.83;23.05;;;18.10;99.90;;;;;;6127798;23;20213;-83
2023/10/03 05:19:28;;;;;;;36.42;21.45;;;18.10;99.90;;;;;;6127123;23;20013;-83
2023/10/03 05:21:54;;;;;;;38.63;22.33;;;18.10;99.90;;;;;;6128193;23;20009;-83
2023/10/03 05:24:19;;;;;;;34.72;22.17;;;18.10;99.90;;;;;;6152550;23;20088;-83
2023/10/03 05:26:45;;;;;;;37.30;23.48;;;18.20;99.90;;;;;;6128441;23;20017;-83
2023/10/03 05:29:11;;;;;;;33.67;22.85;;;18.20;99.90;;;;;;6127764;23;20060;-83
2023/10/03 05:31:40;;;;;;;37.75;21.75;;;18.20;99.90;;;;;;6152230;23;20088;-83
2023/10/03 05:34:07;;;;;;;33.58;21.85;;;18.30;99.90;;;;;;6152511;23;20069;-83
2023/10/03 05:36:33;;;;;;;36.67;22.15;;;18.30;99.90;;;;;;6127607;23;20116;-82
2023/10/03 05:38:59;;;;;;;40.08;21.35;;;18.30;99.90;;;;;;6127648;23;20068;-83
2023/10/03 05:41:25;;;;;;;31.52;20.13;;;18.30;99.90;;;;;;6152179;23;20033;-84
2023/10/03 05:43:51;;;;;;;36.15;21.42;;;18.30;99.90;;;;;;6152100;23;20021;-83
2023/10/03 05:46:17;;;;;;;35.58;21.50;;;18.40;99.90;;;;;;6152821;23;20036;-82
2023/10/03 05:48:43;;;;;;;40.28;22.08;;;18.50;99.90;;;;;;6152027;23;20049;-83
2023/10/03 05:51:09;;;;;;;37.80;20.55;;;18.40;99.90;;;;;;6128127;23;20021;-83
2023/10/03 05:53:35;;;;;;;31.75;21.05;;;18.40;99.90;;;;;;6151771;23;20022;-83
2023/10/03 05:56:04;;;;;;;34.75;21.50;;;18.50;99.90;;;;;;6127716;23;20044;-82
2023/10/03 05:58:30;;;;;;;39.78;21.60;;;18.50;99.90;;;;;;6151780;23;20340;-84
2023/10/03 06:00:56;;;;;;;37.50;20.25;;;18.60;99.90;;;;;;6151223;23;20068;-83
2023/10/03 06:03:22;;;;;;;35.42;21.38;;;18.60;99.90;;;;;;6127852;23;20372;-84
2023/10/03 06:05:47;;;;;;;38.63;20.88;;;18.60;99.90;;;;;;6151704;23;20084;-83
2023/10/03 06:08:13;;;;;;;37.13;21.30;;;18.60;99.90;;;;;;6154528;23;20068;-83
2023/10/03 06:10:39;;;;;;;35.80;21.95;;;18.70;99.90;;;;;;6130504;23;20040;-84
2023/10/03 06:13:10;;;;;;;36.13;21.92;;;18.70;99.90;;;;;;6130055;23;20056;-83
2023/10/03 06:15:40;;;;;;;33.33;20.83;;;18.70;99.90;;;;;;6154998;23;20014;-83
2023/10/03 06:18:05;;;;;;;36.47;23.27;;;18.70;99.90;;;;;;6157109;23;20487;-84
2023/10/03 06:20:31;;;;;;;41.63;23.00;;;18.70;99.90;;;;;;6156876;23;20017;-84
2023/10/03 06:22:57;;;;;;;40.53;21.27;;;18.70;99.90;;;;;;6157589;23;20013;-84
2023/10/03 06:25:24;;;;;;;33.17;20.13;;;18.70;99.90;;;;;;6156635;23;20092;-83
2023/10/03 06:27:50;;;;;;;36.65;20.17;;;18.80;99.90;;;;;;6159222;23;20024;-84
2023/10/03 06:30:17;;;;;;;34.13;18.90;;;18.70;99.90;;;;;;6133715;23;20400;-84
2023/10/03 06:32:44;;;;;;;34.00;19.92;;;18.70;99.90;;;;;;6159442;23;20032;-84
2023/10/03 06:35:10;;;;;;;33.10;19.77;;;18.70;99.90;;;;;;6135219;23;20009;-84
2023/10/03 06:37:37;;;;;;;36.10;20.65;;;18.70;99.90;;;;;;6158027;23;20017;-83
2023/10/03 06:40:07;;;;;;;29.58;19.00;;;18.70;99.90;;;;;;6134137;23;20017;-84
2023/10/03 06:42:36;;;;;;;26.92;18.52;;;18.70;99.90;;;;;;6159544;23;20009;-83
2023/10/03 06:45:03;;;;;;;27.25;18.05;;;18.70;99.90;;;;;;6158018;23;20068;-84
2023/10/03 06:47:29;;;;;;;29.38;18.10;;;18.70;99.90;;;;;;6158944;23;20460;-83
2023/10/03 06:49:55;;;;;;;35.30;18.20;;;18.60;99.90;;;;;;6158464;23;20074;-83
2023/10/03 06:52:21;;;;;;;24.58;17.77;;;18.70;99.90;;;;;;6158134;23;20017;-84
2023/10/03 06:54:47;;;;;;;25.02;18.88;;;18.70;99.90;;;;;;6133976;23;20343;-83
2023/10/03 06:57:14;;;;;;;28.52;16.88;;;18.80;99.90;;;;;;6158516;23;20026;-84
2023/10/03 06:59:40;;;;;;;27.27;16.42;;;18.80;99.90;;;;;;6132888;23;20022;-84
2023/10/03 07:02:06;;;;;;;26.05;16.73;;;18.80;99.90;;;;;;6133997;23;20013;-83
2023/10/03 07:04:31;;;;;;;26.27;17.17;;;18.80;99.90;;;;;;6133709;23;20139;-85
2023/10/03 07:06:57;;;;;;;22.80;15.75;;;18.80;99.90;;;;;;6158436;23;20404;-84
2023/10/03 07:09:23;;;;;;;27.55;17.77;;;18.80;99.90;;;;;;6157567;23;20400;-84
2023/10/03 07:11:48;;;;;;;24.15;15.25;;;18.70;99.90;;;;;;6133936;23;20021;-84
2023/10/03 07:14:16;;;;;;;25.08;15.50;;;18.70;99.90;;;;;;6156653;23;20028;-83
2023/10/03 07:16:44;;;;;;;28.27;16.45;;;18.70;99.90;;;;;;6132039;23;20021;-82
2023/10/03 07:19:10;;;;;;;25.42;15.23;;;18.60;99.90;;;;;;6155584;23;20069;-83
2023/10/03 07:21:37;;;;;;;26.48;16.90;;;18.50;99.90;;;;;;6155439;23;20084;-83
2023/10/03 07:24:03;;;;;;;30.05;15.63;;;18.50;99.90;;;;;;6156141;23;20017;-83
2023/10/03 07:26:29;;;;;;;20.70;15.77;;;18.40;99.90;;;;;;6155676;23;20101;-83
2023/10/03 07:29:00;;;;;;;22.00;15.77;;;18.40;99.90;;;;;;6156047;23;20017;-83
2023/10/03 07:31:27;;;;;;;21.70;15.50;;;18.30;99.90;;;;;;6156781;23;20037;-83
2023/10/03 07:33:53;;;;;;;29.73;15.25;;;18.30;99.90;;;;;;6156114;23;20014;-83
2023/10/03 07:36:20;;;;;;;22.88;14.00;;;18.30;99.90;;;;;;6155500;23;20020;-83
2023/10/03 07:38:45;;;;;;;21.92;14.50;;;18.30;99.90;;;;;;6156084;23;20025;-83
2023/10/03 07:41:16;;;;;;;21.40;13.82;;;18.30;99.90;;;;;;6132317;23;20056;-83
2023/10/03 07:43:45;;;;;;;23.85;14.38;;;18.30;99.90;;;;;;6131438;23;20032;-84
2023/10/03 07:46:13;;;;;;;25.52;13.57;;;18.20;99.90;;;;;;6155687;23;20020;-83
2023/10/03 07:48:41;;;;;;;27.10;14.63;;;18.20;99.90;;;;;;6130395;23;20076;-83
2023/10/03 07:51:15;;;;;;;24.70;12.10;;;18.20;99.90;;;;;;6127842;23;20025;-83
2023/10/03 07:53:41;;;;;;;28.98;13.85;;;18.10;99.90;;;;;;6127087;23;20017;-82
2023/10/03 07:56:42;;;;;;;22.58;12.25;;;18.00;99.90;;;;;;6150771;23;20024;-82
2023/10/03 07:59:05;;;;;;;18.48;11.95;;;18.00;99.90;;;;;;6151898;23;20033;-81
2023/10/03 08:01:31;;;;;;;18.30;11.57;;;17.90;99.90;;;;;;6152941;23;20017;-82
2023/10/03 08:03:58;;;;;;;17.00;11.00;;;17.90;99.90;;;;;;6150973;23;20322;-81
2023/10/03 08:06:27;;;;;;;22.42;12.15;;;17.80;99.90;;;;;;6151185;23;20018;-81
2023/10/03 08:08:59;;;;;;;19.52;11.70;;;17.80;99.90;;;;;;6151250;23;20072;-82
2023/10/03 08:11:29;;;;;;;23.08;12.48;;;17.80;99.90;;;;;;6151355;23;20017;-82
2023/10/03 08:14:15;;;;;;;21.10;12.43;;;17.80;99.90;;;;;;6151477;23;20017;-82
2023/10/03 08:16:45;;;;;;;24.95;12.60;;;17.90;99.90;;;;;;6151558;23;20009;-82
2023/10/03 08:19:21;;;;;;;25.75;11.60;;;17.90;99.90;;;;;;6151699;23;20025;-81
2023/10/03 08:21:52;;;;;;;26.40;12.65;;;18.00;99.90;;;;;;6151565;23;20445;-82
2023/10/03 08:24:28;;;;;;;23.25;11.60;;;17.90;99.90;;;;;;6151660;23;20234;-82
2023/10/03 08:26:58;;;;;;;23.05;11.05;;;17.80;99.90;;;;;;6150393;23;20017;-82
2023/10/03 08:29:25;;;;;;;22.90;10.35;;;17.80;99.90;;;;;;6126791;23;20017;-82
2023/10/03 08:31:58;;;;;;;23.80;17.60;;;17.60;99.90;;;;;;6150886;23;20017;-82
2023/10/03 08:34:25;;;;;;;21.77;10.32;;;17.50;99.90;;;;;;6151171;23;20056;-82
2023/10/03 08:36:54;;;;;;;17.50;10.10;;;17.40;99.90;;;;;;6151251;23;20013;-82
2023/10/03 08:39:22;;;;;;;19.35;12.23;;;17.30;99.90;;;;;;6150712;23;20311;-82
2023/10/03 08:41:58;;;;;;;20.58;10.82;;;17.20;99.90;;;;;;6150087;23;20344;-82
2023/10/03 08:44:24;;;;;;;21.05;9.82;;;17.30;99.90;;;;;;6150205;23;20088;-81
2023/10/03 08:46:57;;;;;;;16.60;11.15;;;17.10;99.90;;;;;;6150672;23;20076;-83
2023/10/03 08:49:27;;;;;;;24.67;19.83;;;17.20;99.90;;;;;;6150872;23;20263;-83
2023/10/03 08:52:01;;;;;;;15.60;9.38;;;17.20;99.90;;;;;;6150711;23;20020;-82
2023/10/03 08:54:36;;;;;;;14.23;12.35;;;17.10;99.90;;;;;;6151901;23;20053;-83
2023/10/03 08:57:02;;;;;;;14.02;12.57;;;17.20;99.90;;;;;;6151591;23;20018;-83
2023/10/03 08:59:30;;;;;;;12.30;8.95;;;17.10;99.90;;;;;;6151644;23;20026;-83
2023/10/03 09:02:01;;;;;;;17.35;14.73;;;17.10;99.90;;;;;;6152325;23;20017;-82
2023/10/03 09:04:38;;;;;;;12.90;8.57;;;17.20;99.90;;;;;;6128602;23;20014;-82
2023/10/03 09:07:09;;;;;;;9.45;7.57;;;17.30;99.90;;;;;;6153734;23;20519;-83
2023/10/03 09:09:45;;;;;;;13.52;10.43;;;17.40;99.90;;;;;;6154271;23;20021;-83
2023/10/03 09:12:12;;;;;;;11.82;10.15;;;17.40;99.90;;;;;;6129789;23;20028;-83
2023/10/03 09:14:38;;;;;;;14.70;9.55;;;17.50;99.90;;;;;;6128109;23;20045;-83
2023/10/03 09:17:05;;;;;;;13.77;10.00;;;17.60;99.90;;;;;;6151352;23;20013;-83
2023/10/03 09:19:42;;;;;;;16.63;11.65;;;17.40;99.90;;;;;;6150923;23;20360;-82
2023/10/03 09:22:31;;;;;;;16.92;15.23;;;17.30;99.90;;;;;;6150408;23;20648;-81
2023/10/03 09:24:57;;;;;;;12.55;11.32;;;17.00;99.90;;;;;;6125064;23;20025;-82
2023/10/03 09:27:30;;;;;;;16.70;15.02;;;16.70;99.90;;;;;;6125744;23;20017;-82
2023/10/03 09:29:58;;;;;;;11.80;10.57;;;16.50;99.90;;;;;;6151488;23;20093;-83
2023/10/03 09:32:24;;;;;;;13.30;11.77;;;16.50;99.90;;;;;;6150294;23;20095;-82
2023/10/03 09:34:57;;;;;;;10.13;8.18;;;16.20;99.90;;;;;;6149893;23;20024;-82
2023/10/03 09:37:29;;;;;;;25.30;23.05;;;16.10;99.90;;;;;;6125022;23;20009;-81
2023/10/03 09:39:59;;;;;;;14.73;13.68;;;16.10;99.90;;;;;;6149280;23;20025;-82
2023/10/03 09:42:25;;;;;;;22.73;21.08;;;16.00;99.90;;;;;;6149940;23;20077;-81
2023/10/03 09:44:51;;;;;;;16.80;15.40;;;16.00;99.90;;;;;;6149539;23;20029;-82
2023/10/03 09:47:18;;;;;;;21.25;19.77;;;16.00;99.90;;;;;;6150307;23;20076;-82
2023/10/03 09:49:48;;;;;;;20.27;18.30;;;16.00;99.90;;;;;;6149939;23;20014;-81
2023/10/03 09:52:22;;;;;;;20.73;19.30;;;15.90;99.90;;;;;;6149821;23;20005;-81
2023/10/03 09:54:53;;;;;;;20.23;18.65;;;16.10;99.90;;;;;;6149131;23;20020;-81
2023/10/03 09:57:23;;;;;;;19.70;18.23;;;16.10;99.90;;;;;;6149888;23;20456;-81
2023/10/03 09:59:50;;;;;;;15.13;13.77;;;16.10;99.90;;;;;;6125191;23;20093;-82
2023/10/03 10:02:30;;;;;;;21.73;20.05;;;16.10;99.90;;;;;;6150104;23;20017;-82
2023/10/03 10:04:59;;;;;;;14.60;13.27;;;16.10;99.90;;;;;;6150571;23;20186;-82
2023/10/03 10:07:34;;;;;;;20.58;19.20;;;16.00;99.90;;;;;;6125730;23;20067;-81
2023/10/03 10:10:14;;;;;;;21.73;20.23;;;16.00;99.90;;;;;;6126517;23;20013;-82
2023/10/03 10:13:13;;;;;;;20.45;18.50;;;16.00;99.90;;;;;;6126015;23;20348;-82
2023/10/03 10:16:00;;;;;;;17.35;16.15;;;16.00;99.90;;;;;;6150586;23;20024;-82
2023/10/03 10:18:44;;;;;;;16.02;14.93;;;16.00;99.90;;;;;;6150009;23;20018;-82
2023/10/03 10:21:36;;;;;;;32.30;30.25;;;16.00;99.90;;;;;;6150269;23;20045;-82
2023/10/03 10:24:20;;;;;;;19.50;18.25;;;16.00;99.90;;;;;;6149508;23;20037;-82
2023/10/03 10:26:52;;;;;;;24.42;22.88;;;15.90;99.90;;;;;;6150266;23;20399;-82
2023/10/03 10:29:25;;;;;;;30.38;28.52;;;15.80;99.90;;;;;;6151711;23;20089;-81
2023/10/03 10:32:00;;;;;;;24.60;22.90;;;15.80;99.90;;;;;;6150073;23;20018;-82
2023/10/03 10:34:40;;;;;;;10.73;9.73;;;15.90;99.90;;;;;;6150747;23;20022;-82
2023/10/03 10:37:10;;;;;;;11.60;10.73;;;16.00;99.90;;;;;;6150117;23;20021;-81
2023/10/03 10:40:04;;;;;;;20.85;19.33;;;16.10;99.90;;;;;;6150332;23;20021;-82
2023/10/03 10:42:32;;;;;;;21.30;19.73;;;16.10;99.90;;;;;;6150220;23;20021;-82
2023/10/03 10:45:04;;;;;;;13.77;12.77;;;16.10;99.90;;;;;;6150108;23;20078;-82
2023/10/03 10:47:44;;;;;;;12.38;11.18;;;16.10;99.90;;;;;;6150275;23;20026;-82
2023/10/03 10:50:09;;;;;;;24.33;22.70;;;16.00;99.90;;;;;;6150236;23;20018;-82
2023/10/03 10:53:02;;;;;;;23.55;21.75;;;16.10;99.90;;;;;;6149063;23;20006;-82
2023/10/03 10:55:29;;;;;;;37.80;35.27;;;16.20;99.90;;;;;;6149991;23;20121;-81
2023/10/03 10:58:22;;;;;;;17.35;15.75;;;16.30;99.90;;;;;;6149921;23;20023;-82
2023/10/03 11:00:57;;;;;;;14.88;11.93;;;16.30;99.90;;;;;;6145271;23;20013;-82
2023/10/03 11:03:23;;;;;;;13.80;12.60;;;16.40;99.90;;;;;;6150647;23;20018;-82
2023/10/03 11:05:50;;;;;;;20.35;18.67;;;16.60;99.90;;;;;;6125596;23;20105;-82
2023/10/03 11:08:19;;;;;;;15.25;13.73;;;16.60;99.90;;;;;;6149995;23;20018;-82
2023/10/03 11:10:55;;;;;;;18.48;17.15;;;16.70;99.90;;;;;;6150547;23;20096;-82
2023/10/03 11:13:24;;;;;;;16.30;14.95;;;16.70;99.90;;;;;;6152764;23;20022;-81
2023/10/03 11:15:51;;;;;;;13.10;12.05;;;16.60;99.90;;;;;;6152721;23;20021;-82
2023/10/03 11:18:33;;;;;;;12.45;11.30;;;16.70;99.90;;;;;;6151414;23;20356;-82
2023/10/03 11:21:02;;;;;;;23.90;22.20;;;16.50;99.90;;;;;;6150994;23;20486;-82
2023/10/03 11:23:28;;;;;;;26.52;24.73;;;16.40;99.90;;;;;;6152874;23;20029;-82
2023/10/03 11:25:59;;;;;;;15.07;13.60;;;16.20;99.90;;;;;;6151273;23;20009;-82
2023/10/03 11:28:28;;;;;;;34.28;31.77;;;16.10;99.90;;;;;;6151340;23;20449;-81
2023/10/03 11:31:09;;;;;;;17.63;15.98;;;15.80;99.90;;;;;;6151068;23;20017;-81
2023/10/03 11:33:46;;;;;;;29.27;27.23;;;15.70;99.90;;;;;;6151164;23;20025;-81
2023/10/03 11:36:12;;;;;;;27.02;25.08;;;15.60;99.90;;;;;;6150608;23;20049;-81
2023/10/03 11:38:49;;;;;;;34.40;31.80;;;15.70;99.90;;;;;;6151009;23;20507;-82
2023/10/03 11:41:29;;;;;;;19.60;17.88;;;15.70;99.90;;;;;;6153226;23;20040;-81
2023/10/03 11:43:55;;;;;;;18.20;16.80;;;15.70;99.90;;;;;;6150762;23;20017;-81
2023/10/03 11:46:21;;;;;;;21.77;19.95;;;15.90;99.90;;;;;;6126763;23;20455;-81
2023/10/03 11:48:58;;;;;;;15.73;14.25;;;15.90;99.90;;;;;;6151202;23;20388;-81
2023/10/03 11:51:25;;;;;;;26.40;24.10;;;16.00;99.90;;;;;;6151435;23;20092;-82
2023/10/03 11:53:51;;;;;;;26.77;24.65;;;16.00;99.90;;;;;;6126659;23;20332;-81
2023/10/03 11:56:17;;;;;;;17.83;16.30;;;16.00;99.90;;;;;;6151383;23;20072;-81
2023/10/03 11:58:43;;;;;;;19.83;17.95;;;16.00;99.90;;;;;;6150819;23;20017;-81
2023/10/03 12:01:09;;;;;;;16.50;14.68;;;16.00;99.90;;;;;;6126421;23;20018;-81
2023/10/03 12:03:37;;;;;;;21.98;20.20;;;16.00;99.90;;;;;;6125521;23;20025;-81
2023/10/03 12:06:04;;;;;;;26.15;23.88;;;16.10;99.90;;;;;;6152164;23;20012;-81
2023/10/03 12:08:32;;;;;;;17.17;14.20;;;16.10;99.90;;;;;;6125698;23;20024;-81
2023/10/03 12:10:58;;;;;;;16.23;14.65;;;16.20;99.90;;;;;;6150261;23;20089;-80
2023/10/03 12:13:23;;;;;;;15.07;13.50;;;16.30;99.90;;;;;;6150290;23;20025;-81
2023/10/03 12:15:49;;;;;;;22.63;20.60;;;16.20;99.90;;;;;;6150190;23;20341;-82
2023/10/03 12:18:15;;;;;;;20.50;14.68;;;16.20;99.90;;;;;;6149859;23;20099;-81
2023/10/03 12:20:44;;;;;;;22.30;20.33;;;16.20;99.90;;;;;;6150252;23;20021;-81
2023/10/03 12:23:10;;;;;;;15.52;13.13;;;16.10;99.90;;;;;;6125254;23;20016;-81
2023/10/03 12:25:35;;;;;;;25.42;23.05;;;16.20;99.90;;;;;;6150132;23;20024;-80
2023/10/03 12:28:01;;;;;;;15.50;13.63;;;16.20;99.90;;;;;;6151677;23;20045;-81
2023/10/03 12:30:27;;;;;;;18.55;16.67;;;16.20;99.90;;;;;;6150389;23;20088;-81
2023/10/03 12:32:55;;;;;;;15.55;13.98;;;16.20;99.90;;;;;;6125015;23;20344;-81
2023/10/03 12:35:21;;;;;;;19.42;17.65;;;16.00;99.90;;;;;;6150417;23;20044;-81
2023/10/03 12:37:48;;;;;;;16.15;14.48;;;16.00;99.90;;;;;;6150416;23;20013;-80
2023/10/03 12:40:17;;;;;;;16.40;12.93;;;16.10;99.90;;;;;;6125465;23;20028;-81